createdAt,value
2016-11-23T00:00:44.316Z,99.99
2016-11-23T00:01:57.910Z,99.99
2016-11-23T00:03:11.484Z,99.99
2016-11-23T00:04:23.831Z,99.99
2016-11-23T00:05:38.302Z,99.99
2016-11-23T00:06:50.753Z,99.99
2016-11-23T00:08:04.269Z,99.99
2016-11-23T00:09:16.760Z,99.99
2016-11-23T00:10:29.765Z,99.99
2016-11-23T00:11:42.819Z,99.99
2016-11-23T00:12:55.813Z,99.99
2016-11-23T00:14:09.308Z,99.99
2016-11-23T00:15:22.302Z,99.99
2016-11-23T00:16:34.883Z,99.99
2016-11-23T00:17:47.326Z,99.99
2016-11-23T00:19:00.870Z,99.99
2016-11-23T00:20:12.830Z,99.99
2016-11-23T00:21:26.416Z,99.99
2016-11-23T00:22:38.974Z,99.99
2016-11-23T00:23:52.558Z,99.99
2016-11-23T00:25:05.071Z,99.99
2016-11-23T00:26:18.789Z,99.99
2016-11-23T00:27:31.273Z,99.99
2016-11-23T00:28:44.309Z,99.99
2016-11-23T00:29:57.370Z,99.99
2016-11-23T00:31:09.820Z,99.99
2016-11-23T00:32:22.328Z,99.99
2016-11-23T00:33:35.359Z,99.99
2016-11-23T00:34:47.378Z,99.99
2016-11-23T00:35:59.896Z,99.99
2016-11-23T00:37:12.868Z,99.99
2016-11-23T00:38:25.359Z,99.99
2016-11-23T00:39:38.922Z,99.99
2016-11-23T00:40:52.018Z,99.99
2016-11-23T00:42:05.023Z,99.99
2016-11-23T00:43:17.464Z,99.99
2016-11-23T00:44:29.908Z,99.99
2016-11-23T00:45:41.828Z,99.99
2016-11-23T00:46:54.877Z,99.99
2016-11-23T00:48:07.852Z,99.99
2016-11-23T00:49:20.338Z,99.99
2016-11-23T00:50:33.362Z,99.99
2016-11-23T00:51:45.834Z,99.99
2016-11-23T00:52:57.751Z,99.99
2016-11-23T00:54:10.755Z,99.99
2016-11-23T00:55:24.321Z,99.99
2016-11-23T00:56:36.289Z,99.99
2016-11-23T00:57:49.296Z,99.99
2016-11-23T00:59:01.755Z,99.99
2016-11-23T01:00:13.665Z,99.99
2016-11-23T01:01:26.766Z,99.99
2016-11-23T01:02:39.749Z,99.99
2016-11-23T01:03:52.275Z,99.99
2016-11-23T01:05:05.250Z,99.99
2016-11-23T01:06:17.188Z,99.99
2016-11-23T01:07:30.278Z,99.99
2016-11-23T01:08:43.833Z,99.99
2016-11-23T01:09:57.388Z,99.99
2016-11-23T01:11:09.917Z,99.99
2016-11-23T01:12:22.941Z,99.99
2016-11-23T01:13:36.507Z,99.99
2016-11-23T01:14:48.967Z,99.99
2016-11-23T01:16:00.865Z,99.99
2016-11-23T01:17:12.270Z,99.99
2016-11-23T01:18:24.750Z,99.99
2016-11-23T01:19:38.238Z,99.99
2016-11-23T01:20:51.264Z,99.99
2016-11-23T01:22:03.743Z,99.99
2016-11-23T01:23:17.261Z,99.99
2016-11-23T01:24:30.809Z,99.99
2016-11-23T01:25:43.279Z,99.99
2016-11-23T01:26:55.211Z,99.99
2016-11-23T01:28:08.217Z,99.99
2016-11-23T01:29:21.192Z,99.99
2016-11-23T01:30:33.617Z,99.99
2016-11-23T01:31:46.073Z,99.99
2016-11-23T01:32:58.039Z,99.99
2016-11-23T01:34:10.518Z,99.99
2016-11-23T01:35:23.577Z,99.99
2016-11-23T01:36:36.106Z,99.99
2016-11-23T01:37:48.829Z,99.99
2016-11-23T01:39:01.847Z,99.99
2016-11-23T01:40:15.315Z,99.99
2016-11-23T01:41:28.377Z,99.99
2016-11-23T01:42:41.948Z,99.99
2016-11-23T01:43:53.917Z,99.99
2016-11-23T01:45:05.306Z,99.99
2016-11-23T01:46:18.818Z,99.99
2016-11-23T01:47:31.301Z,99.99
2016-11-23T01:48:44.334Z,99.99
2016-11-23T01:49:58.023Z,99.99
2016-11-23T01:51:11.056Z,99.99
2016-11-23T01:52:23.040Z,99.99
2016-11-23T01:53:36.085Z,99.99
2016-11-23T01:54:49.123Z,99.99
2016-11-23T01:56:04.436Z,99.99
2016-11-23T01:57:16.914Z,99.99
2016-11-23T01:58:29.955Z,99.99
2016-11-23T01:59:43.018Z,99.99
2016-11-23T02:00:56.103Z,99.99
2016-11-23T02:02:09.901Z,99.99
2016-11-23T02:03:24.983Z,99.99
2016-11-23T02:04:37.979Z,99.99
2016-11-23T02:05:51.036Z,99.99
2016-11-23T02:07:04.639Z,99.99
2016-11-23T02:08:16.612Z,99.99
2016-11-23T02:09:29.689Z,99.99
2016-11-23T02:10:43.254Z,99.99
2016-11-23T02:11:56.308Z,99.99
2016-11-23T02:13:09.941Z,99.99
2016-11-23T02:14:23.495Z,99.99
2016-11-23T02:15:36.501Z,99.99
2016-11-23T02:16:49.497Z,99.99
2016-11-23T02:18:01.985Z,99.99
2016-11-23T02:19:14.985Z,99.99
2016-11-23T02:20:28.561Z,99.99
2016-11-23T02:21:40.515Z,99.99
2016-11-23T02:22:53.428Z,99.99
2016-11-23T02:24:06.405Z,99.99
2016-11-23T02:25:19.401Z,99.99
2016-11-23T02:26:32.460Z,99.99
2016-11-23T02:27:46.068Z,99.99
2016-11-23T02:28:59.622Z,99.99
2016-11-23T02:30:12.137Z,99.99
2016-11-23T02:31:24.083Z,99.99
2016-11-23T02:32:37.062Z,99.99
2016-11-23T02:33:49.547Z,99.99
2016-11-23T02:35:03.120Z,99.99
2016-11-23T02:36:16.113Z,99.99
2016-11-23T02:37:29.069Z,99.99
2016-11-23T02:38:41.537Z,99.99
2016-11-23T02:39:54.015Z,99.99
2016-11-23T02:41:07.090Z,99.99
2016-11-23T02:42:19.581Z,99.99
2016-11-23T02:43:32.081Z,99.99
2016-11-23T02:44:45.183Z,99.99
2016-11-23T02:45:58.761Z,99.99
2016-11-23T02:47:11.295Z,99.99
2016-11-23T02:48:23.759Z,99.99
2016-11-23T02:49:36.774Z,99.99
2016-11-23T02:50:49.276Z,99.99
2016-11-23T02:52:01.714Z,99.99
2016-11-23T02:53:14.724Z,99.99
2016-11-23T02:54:26.702Z,99.99
2016-11-23T02:55:39.700Z,99.99
2016-11-23T02:56:52.756Z,99.99
2016-11-23T02:58:05.234Z,99.99
2016-11-23T02:59:18.236Z,99.99
2016-11-23T03:00:30.722Z,99.99
2016-11-23T03:01:44.022Z,99.99
2016-11-23T03:02:56.486Z,99.99
2016-11-23T03:04:10.085Z,99.99
2016-11-23T03:05:23.038Z,99.99
2016-11-23T03:06:36.041Z,99.99
2016-11-23T03:07:48.501Z,99.99
2016-11-23T03:09:02.082Z,99.99
2016-11-23T03:10:15.123Z,99.99
2016-11-23T03:11:27.593Z,99.99
2016-11-23T03:12:41.581Z,99.99
2016-11-23T03:13:54.083Z,99.99
2016-11-23T03:15:07.701Z,99.99
2016-11-23T03:16:19.664Z,99.99
2016-11-23T03:17:31.700Z,99.99
2016-11-23T03:18:45.242Z,99.99
2016-11-23T03:19:58.259Z,99.99
2016-11-23T03:21:10.710Z,99.99
2016-11-23T03:22:24.264Z,99.99
2016-11-23T03:23:37.308Z,99.99
2016-11-23T03:24:49.828Z,99.99
2016-11-23T03:26:02.330Z,99.99
2016-11-23T03:27:14.802Z,99.99
2016-11-23T03:28:27.797Z,99.99
2016-11-23T03:29:40.913Z,99.99
2016-11-23T03:30:54.449Z,99.99
2016-11-23T03:32:06.948Z,99.99
2016-11-23T03:33:20.587Z,99.99
2016-11-23T03:34:33.035Z,99.99
2016-11-23T03:35:46.064Z,99.99
2016-11-23T03:36:57.493Z,99.99
2016-11-23T03:38:10.527Z,99.99
2016-11-23T03:39:22.965Z,99.99
2016-11-23T03:40:35.404Z,99.99
2016-11-23T03:41:48.388Z,99.99
2016-11-23T03:43:00.915Z,99.99
2016-11-23T03:44:14.470Z,99.99
2016-11-23T03:45:25.873Z,99.99
2016-11-23T03:46:38.889Z,99.99
2016-11-23T03:47:50.826Z,99.99
2016-11-23T03:49:04.370Z,99.99
2016-11-23T03:50:16.927Z,99.99
2016-11-23T03:51:29.924Z,99.99
2016-11-23T03:52:43.513Z,99.99
2016-11-23T03:53:57.026Z,99.99
2016-11-23T03:55:10.570Z,99.99
2016-11-23T03:56:24.127Z,99.99
2016-11-23T03:57:37.703Z,99.99
2016-11-23T03:58:49.706Z,99.99
2016-11-23T04:00:02.151Z,99.99
2016-11-23T04:01:15.653Z,99.99
2016-11-23T04:02:28.644Z,99.99
2016-11-23T04:03:41.678Z,99.99
2016-11-23T04:04:54.158Z,99.99
2016-11-23T04:06:07.176Z,99.99
2016-11-23T04:07:19.706Z,99.99
2016-11-23T04:08:33.248Z,99.99
2016-11-23T04:09:46.273Z,99.99
2016-11-23T04:10:59.779Z,99.99
2016-11-23T04:12:12.224Z,99.99
2016-11-23T04:13:25.235Z,99.99
2016-11-23T04:14:37.215Z,99.99
2016-11-23T04:15:49.756Z,99.99
2016-11-23T04:17:02.833Z,99.99
2016-11-23T04:18:16.346Z,99.99
2016-11-23T04:19:28.829Z,99.99
2016-11-23T04:20:41.876Z,99.99
2016-11-23T04:21:54.359Z,99.99
2016-11-23T04:23:07.371Z,99.99
2016-11-23T04:24:20.385Z,99.99
2016-11-23T04:25:33.079Z,99.99
2016-11-23T04:26:45.595Z,99.99
2016-11-23T04:27:57.589Z,99.99
2016-11-23T04:29:10.561Z,99.99
2016-11-23T04:30:22.560Z,99.99
2016-11-23T04:31:36.090Z,99.99
2016-11-23T04:32:48.089Z,99.99
2016-11-23T04:34:00.564Z,99.99
2016-11-23T04:35:14.118Z,99.99
2016-11-23T04:36:27.090Z,99.99
2016-11-23T04:37:40.675Z,99.99
2016-11-23T04:38:52.097Z,99.99
2016-11-23T04:40:05.070Z,99.99
2016-11-23T04:41:18.123Z,99.99
2016-11-23T04:42:30.065Z,99.99
2016-11-23T04:43:42.544Z,99.99
2016-11-23T04:44:56.087Z,99.99
2016-11-23T04:46:09.633Z,99.99
2016-11-23T04:47:22.554Z,99.99
2016-11-23T04:48:35.133Z,99.99
2016-11-23T04:49:48.142Z,99.99
2016-11-23T04:51:01.115Z,99.99
2016-11-23T04:52:12.548Z,99.99
2016-11-23T04:53:25.582Z,99.99
2016-11-23T04:54:38.586Z,99.99
2016-11-23T04:55:51.569Z,99.99
2016-11-23T04:57:04.029Z,99.99
2016-11-23T04:58:16.497Z,99.99
2016-11-23T04:59:27.902Z,99.99
2016-11-23T05:00:40.413Z,99.99
2016-11-23T05:01:53.945Z,99.99
2016-11-23T05:03:06.469Z,99.99
2016-11-23T05:04:18.971Z,99.99
2016-11-23T05:05:31.464Z,99.99
2016-11-23T05:06:43.978Z,99.99
2016-11-23T05:07:56.947Z,99.99
2016-11-23T05:09:10.543Z,99.99
2016-11-23T05:10:24.087Z,99.99
2016-11-23T05:11:35.544Z,99.99
2016-11-23T05:12:48.079Z,99.99
2016-11-23T05:14:01.025Z,99.99
2016-11-23T05:15:14.126Z,99.99
2016-11-23T05:16:26.588Z,99.99
2016-11-23T05:17:39.021Z,99.99
2016-11-23T05:18:52.036Z,99.99
2016-11-23T05:20:05.621Z,99.99
2016-11-23T05:21:18.567Z,99.99
2016-11-23T05:22:31.647Z,99.99
2016-11-23T05:23:44.147Z,99.99
2016-11-23T05:24:56.092Z,99.99
2016-11-23T05:26:09.162Z,99.99
2016-11-23T05:27:22.772Z,99.99
2016-11-23T05:28:35.798Z,99.99
2016-11-23T05:29:49.321Z,99.99
2016-11-23T05:31:02.355Z,99.99
2016-11-23T05:32:15.359Z,99.99
2016-11-23T05:33:27.882Z,99.99
2016-11-23T05:34:41.443Z,99.99
2016-11-23T05:35:53.937Z,99.99
2016-11-23T05:37:06.968Z,99.99
2016-11-23T05:38:20.525Z,99.99
2016-11-23T05:39:32.987Z,99.99
2016-11-23T05:40:45.969Z,99.99
2016-11-23T05:41:59.470Z,99.99
2016-11-23T05:43:12.446Z,99.99
2016-11-23T05:44:25.409Z,99.99
2016-11-23T05:45:37.884Z,99.99
2016-11-23T05:46:51.374Z,99.99
2016-11-23T05:48:03.831Z,99.99
2016-11-23T05:49:16.821Z,99.99
2016-11-23T05:50:29.819Z,99.99
2016-11-23T05:51:42.848Z,99.99
2016-11-23T05:52:55.873Z,99.99
2016-11-23T05:54:08.318Z,99.99
2016-11-23T05:55:21.346Z,99.99
2016-11-23T05:56:33.367Z,99.99
2016-11-23T05:57:45.874Z,99.99
2016-11-23T05:58:59.435Z,99.99
2016-11-23T06:00:11.937Z,99.99
2016-11-23T06:01:23.871Z,99.99
2016-11-23T06:02:35.268Z,99.99
2016-11-23T06:03:46.681Z,99.99
2016-11-23T06:05:00.277Z,99.99
2016-11-23T06:06:12.778Z,99.99
2016-11-23T06:07:26.311Z,99.99
2016-11-23T06:08:39.389Z,99.99
2016-11-23T06:09:51.867Z,99.99
2016-11-23T06:11:05.484Z,99.99
2016-11-23T06:12:17.959Z,99.99
2016-11-23T06:13:31.001Z,99.99
2016-11-23T06:14:44.010Z,99.99
2016-11-23T06:15:56.517Z,99.99
2016-11-23T06:17:10.055Z,99.99
2016-11-23T06:18:21.496Z,99.99
2016-11-23T06:19:35.134Z,99.99
2016-11-23T06:20:47.623Z,99.99
2016-11-23T06:21:59.614Z,99.99
2016-11-23T06:23:13.176Z,99.99
2016-11-23T06:24:25.112Z,99.99
2016-11-23T06:25:37.614Z,99.99
2016-11-23T06:26:51.125Z,99.99
2016-11-23T06:28:04.631Z,99.99
2016-11-23T06:29:17.087Z,99.99
2016-11-23T06:30:30.093Z,99.99
2016-11-23T06:31:43.143Z,99.99
2016-11-23T06:32:55.672Z,99.99
2016-11-23T06:34:09.200Z,99.99
2016-11-23T06:35:22.793Z,99.99
2016-11-23T06:36:35.283Z,99.99
2016-11-23T06:37:47.222Z,99.99
2016-11-23T06:39:00.719Z,99.99
2016-11-23T06:40:13.751Z,99.99
2016-11-23T06:41:27.378Z,99.99
2016-11-23T06:42:39.876Z,99.99
2016-11-23T06:43:51.815Z,99.99
2016-11-23T06:45:04.825Z,99.99
2016-11-23T06:46:17.906Z,99.99
2016-11-23T06:47:29.919Z,99.99
2016-11-23T06:48:42.453Z,99.99
2016-11-23T06:49:54.423Z,99.99
2016-11-23T06:51:06.410Z,99.99
2016-11-23T06:52:18.368Z,99.99
2016-11-23T06:53:30.857Z,99.99
2016-11-23T06:54:43.858Z,99.99
2016-11-23T06:55:57.334Z,99.99
2016-11-23T06:57:10.877Z,99.99
2016-11-23T06:58:22.798Z,99.99
2016-11-23T06:59:35.840Z,99.99
2016-11-23T07:00:48.327Z,99.99
2016-11-23T07:01:59.719Z,99.99
2016-11-23T07:03:12.211Z,99.99
2016-11-23T07:04:24.710Z,99.99
2016-11-23T07:05:37.280Z,99.99
2016-11-23T07:06:49.804Z,99.99
2016-11-23T07:08:02.297Z,99.99
2016-11-23T07:09:15.344Z,99.99
2016-11-23T07:10:27.349Z,99.99
2016-11-23T07:11:39.905Z,99.99
2016-11-23T07:12:51.899Z,99.99
2016-11-23T07:14:04.370Z,99.99
2016-11-23T07:15:17.371Z,99.99
2016-11-23T07:16:30.382Z,99.99
2016-11-23T07:17:42.895Z,99.99
2016-11-23T07:18:56.497Z,99.99
2016-11-23T07:20:09.985Z,99.99
2016-11-23T07:21:23.007Z,99.99
2016-11-23T07:22:34.405Z,99.99
2016-11-23T07:23:46.891Z,99.99
2016-11-23T07:24:59.374Z,99.99
2016-11-23T07:26:11.333Z,99.99
2016-11-23T07:27:23.797Z,99.99
2016-11-23T07:28:36.283Z,99.99
2016-11-23T07:29:49.859Z,99.99
2016-11-23T07:31:02.326Z,99.99
2016-11-23T07:32:15.317Z,99.99
2016-11-23T07:33:28.802Z,99.99
2016-11-23T07:34:40.754Z,99.99
2016-11-23T07:35:53.856Z,99.99
2016-11-23T07:37:05.827Z,99.99
2016-11-23T07:38:18.845Z,99.99
2016-11-23T07:39:32.411Z,99.99
2016-11-23T07:40:45.436Z,99.99
2016-11-23T07:41:59.103Z,99.99
2016-11-23T07:43:12.636Z,99.99
2016-11-23T07:44:25.184Z,99.99
2016-11-23T07:45:38.179Z,99.99
2016-11-23T07:46:50.214Z,99.99
2016-11-23T07:48:03.200Z,99.99
2016-11-23T07:49:15.715Z,99.99
2016-11-23T07:50:27.626Z,99.99
2016-11-23T07:51:39.591Z,99.99
2016-11-23T07:52:53.154Z,99.99
2016-11-23T07:54:05.674Z,99.99
2016-11-23T07:55:18.685Z,99.99
2016-11-23T07:56:30.631Z,99.99
2016-11-23T07:57:43.113Z,99.99
2016-11-23T07:58:55.587Z,99.99
2016-11-23T08:00:08.597Z,99.99
2016-11-23T08:01:22.109Z,99.99
2016-11-23T08:02:35.607Z,99.99
2016-11-23T08:03:48.644Z,99.99
2016-11-23T08:05:01.149Z,99.99
2016-11-23T08:06:13.635Z,99.99
2016-11-23T08:07:26.062Z,99.99
2016-11-23T08:08:38.552Z,99.99
2016-11-23T08:09:52.129Z,99.99
2016-11-23T08:11:05.678Z,99.99
2016-11-23T08:12:19.167Z,99.99
2016-11-23T08:13:32.138Z,99.99
2016-11-23T08:14:44.578Z,99.99
2016-11-23T08:15:57.584Z,99.99
2016-11-23T08:17:09.015Z,99.99
2016-11-23T08:18:21.566Z,99.99
2016-11-23T08:19:34.516Z,99.99
2016-11-23T08:20:46.461Z,99.99
2016-11-23T08:21:58.989Z,99.99
2016-11-23T08:23:12.000Z,99.99
2016-11-23T08:24:24.524Z,99.99
2016-11-23T08:25:37.036Z,99.99
2016-11-23T08:26:49.473Z,99.99
2016-11-23T08:28:00.931Z,99.99
2016-11-23T08:29:13.400Z,99.99
2016-11-23T08:30:26.899Z,99.99
2016-11-23T08:31:40.393Z,99.99
2016-11-23T08:32:53.427Z,99.99
2016-11-23T08:34:06.389Z,99.99
2016-11-23T08:35:18.367Z,99.99
2016-11-23T08:36:30.301Z,99.99
2016-11-23T08:37:42.775Z,99.99
2016-11-23T08:38:55.302Z,99.99
2016-11-23T08:40:07.279Z,99.99
2016-11-23T08:41:20.341Z,99.99
2016-11-23T08:42:32.849Z,99.99
2016-11-23T08:43:45.342Z,99.99
2016-11-23T08:44:58.324Z,99.99
2016-11-23T08:46:10.306Z,99.99
2016-11-23T08:47:23.336Z,99.99
2016-11-23T08:48:36.825Z,99.99
2016-11-23T08:49:49.261Z,99.99
2016-11-23T08:51:01.723Z,99.99
2016-11-23T08:52:14.810Z,99.99
2016-11-23T08:53:27.826Z,99.99
2016-11-23T08:54:40.302Z,99.99
2016-11-23T08:55:53.821Z,99.99
2016-11-23T08:57:06.856Z,99.99
2016-11-23T08:58:19.894Z,99.99
2016-11-23T08:59:32.405Z,99.99
2016-11-23T09:00:45.393Z,99.99
2016-11-23T09:01:57.902Z,99.99
2016-11-23T09:03:10.314Z,99.99
2016-11-23T09:04:22.805Z,99.99
2016-11-23T09:05:34.768Z,99.99
2016-11-23T09:06:47.253Z,99.99
2016-11-23T09:08:00.237Z,99.99
2016-11-23T09:09:13.248Z,99.99
2016-11-23T09:10:25.211Z,99.99
2016-11-23T09:11:37.716Z,99.99
2016-11-23T09:12:51.216Z,99.99
2016-11-23T09:14:04.784Z,99.99
2016-11-23T09:15:17.285Z,99.99
2016-11-23T09:16:30.353Z,99.99
2016-11-23T09:17:43.390Z,99.99
2016-11-23T09:18:55.889Z,99.99
2016-11-23T09:20:08.877Z,99.99
2016-11-23T09:21:21.894Z,99.99
2016-11-23T09:22:34.407Z,99.99
2016-11-23T09:23:46.389Z,99.99
2016-11-23T09:24:58.895Z,99.99
2016-11-23T09:26:11.412Z,99.99
2016-11-23T09:27:23.894Z,99.99
2016-11-23T09:28:36.429Z,99.99
2016-11-23T09:29:49.510Z,99.99
2016-11-23T09:31:01.998Z,99.99
2016-11-23T09:32:13.968Z,99.99
2016-11-23T09:33:25.882Z,99.99
2016-11-23T09:34:38.879Z,99.99
2016-11-23T09:35:51.897Z,99.99
2016-11-23T09:37:04.885Z,99.99
2016-11-23T09:38:16.893Z,99.99
2016-11-23T09:39:29.967Z,99.99
2016-11-23T09:40:42.945Z,99.99
2016-11-23T09:41:55.944Z,99.99
2016-11-23T09:43:07.919Z,99.99
2016-11-23T09:44:20.381Z,99.99
2016-11-23T09:45:32.388Z,99.99
2016-11-23T09:46:45.416Z,99.99
2016-11-23T09:47:58.457Z,99.99
2016-11-23T09:49:11.978Z,99.99
2016-11-23T09:50:24.919Z,99.99
2016-11-23T09:51:36.943Z,99.99
2016-11-23T09:52:50.554Z,99.99
2016-11-23T09:54:04.052Z,99.99
2016-11-23T09:55:16.527Z,99.99
2016-11-23T09:56:28.507Z,99.99
2016-11-23T09:57:41.521Z,99.99
2016-11-23T09:58:54.544Z,99.99
2016-11-23T10:00:07.538Z,99.99
2016-11-23T10:01:18.907Z,99.99
2016-11-23T10:02:31.925Z,99.99
2016-11-23T10:03:44.388Z,99.99
2016-11-23T10:04:56.872Z,99.99
2016-11-23T10:06:08.856Z,99.99
2016-11-23T10:07:21.325Z,99.99
2016-11-23T10:08:33.790Z,99.99
2016-11-23T10:09:46.846Z,99.99
2016-11-23T10:11:00.440Z,99.99
2016-11-23T10:12:14.044Z,99.99
2016-11-23T10:13:26.043Z,99.99
2016-11-23T10:14:39.571Z,99.99
2016-11-23T10:15:52.634Z,99.99
2016-11-23T10:17:04.626Z,99.99
2016-11-23T10:18:17.599Z,99.99
2016-11-23T10:19:30.619Z,99.99
2016-11-23T10:20:43.622Z,99.99
2016-11-23T10:21:56.118Z,99.99
2016-11-23T10:23:09.119Z,99.99
2016-11-23T10:24:22.147Z,99.99
2016-11-23T10:25:34.119Z,99.99
2016-11-23T10:26:46.636Z,99.99
2016-11-23T10:27:59.626Z,99.99
2016-11-23T10:29:12.082Z,99.99
2016-11-23T10:30:24.606Z,99.99
2016-11-23T10:31:37.136Z,99.99
2016-11-23T10:32:50.153Z,99.99
2016-11-23T10:34:02.155Z,99.99
2016-11-23T10:35:13.591Z,99.99
2016-11-23T10:36:26.067Z,99.99
2016-11-23T10:37:39.040Z,99.99
2016-11-23T10:38:51.542Z,99.99
2016-11-23T10:40:04.609Z,99.99
2016-11-23T10:41:17.683Z,99.99
2016-11-23T10:42:30.120Z,99.99
2016-11-23T10:43:43.080Z,99.99
2016-11-23T10:44:56.214Z,99.99
2016-11-23T10:46:09.206Z,99.99
2016-11-23T10:47:21.720Z,99.99
2016-11-23T10:48:34.179Z,99.99
2016-11-23T10:49:47.201Z,99.99
2016-11-23T10:51:00.245Z,99.99
2016-11-23T10:52:13.210Z,99.99
2016-11-23T10:53:26.220Z,99.99
2016-11-23T10:54:38.715Z,99.99
2016-11-23T10:55:51.779Z,99.99
2016-11-23T10:57:03.810Z,99.99
2016-11-23T10:58:16.806Z,99.99
2016-11-23T10:59:29.751Z,99.99
2016-11-23T11:00:43.311Z,99.99
2016-11-23T11:01:56.363Z,99.99
2016-11-23T11:03:09.917Z,99.99
2016-11-23T11:04:22.862Z,99.99
2016-11-23T11:05:35.938Z,99.99
2016-11-23T11:06:49.048Z,99.99
2016-11-23T11:08:02.140Z,99.99
2016-11-23T11:09:14.624Z,99.99
2016-11-23T11:10:27.101Z,99.99
2016-11-23T11:11:40.142Z,99.99
2016-11-23T11:12:52.588Z,99.99
2016-11-23T11:14:04.071Z,99.99
2016-11-23T11:15:16.585Z,99.99
2016-11-23T11:16:30.163Z,99.99
2016-11-23T11:17:43.215Z,99.99
2016-11-23T11:18:55.694Z,99.99
2016-11-23T11:20:07.659Z,99.99
2016-11-23T11:21:19.663Z,99.99
2016-11-23T11:22:32.698Z,99.99
2016-11-23T11:23:46.251Z,99.99
2016-11-23T11:24:59.828Z,99.99
2016-11-23T11:26:12.377Z,99.99
2016-11-23T11:27:24.878Z,99.99
2016-11-23T11:28:38.350Z,99.99
2016-11-23T11:29:51.846Z,99.99
2016-11-23T11:31:04.881Z,99.99
2016-11-23T11:32:16.814Z,99.99
2016-11-23T11:33:28.750Z,99.99
2016-11-23T11:34:42.247Z,99.99
2016-11-23T11:35:55.771Z,99.99
2016-11-23T11:37:07.737Z,99.99
2016-11-23T11:38:20.788Z,99.99
2016-11-23T11:39:33.796Z,99.99
2016-11-23T11:40:46.860Z,99.99
2016-11-23T11:41:59.891Z,99.99
2016-11-23T11:43:11.952Z,99.99
2016-11-23T11:44:23.930Z,99.99
2016-11-23T11:45:36.967Z,99.99
2016-11-23T11:46:49.421Z,99.99
2016-11-23T11:48:01.968Z,99.99
2016-11-23T11:49:15.010Z,99.99
2016-11-23T11:50:27.979Z,99.99
2016-11-23T11:51:39.928Z,99.99
2016-11-23T11:52:52.904Z,99.99
2016-11-23T11:54:06.378Z,99.99
2016-11-23T11:55:18.815Z,99.99
2016-11-23T11:56:31.844Z,99.99
2016-11-23T11:57:43.836Z,99.99
2016-11-23T11:58:55.808Z,99.99
2016-11-23T12:00:08.897Z,99.99
2016-11-23T12:01:20.850Z,99.99
2016-11-23T12:02:34.458Z,99.99
2016-11-23T12:03:46.430Z,99.99
2016-11-23T12:04:58.897Z,99.99
2016-11-23T12:06:11.419Z,99.99
2016-11-23T12:07:24.456Z,99.99
2016-11-23T12:08:37.521Z,99.99
2016-11-23T12:09:50.043Z,99.99
2016-11-23T12:11:02.272Z,99.99
2016-11-23T12:12:15.865Z,99.99
2016-11-23T12:13:28.363Z,99.99
2016-11-23T12:14:41.382Z,99.99
2016-11-23T12:15:55.225Z,99.99
2016-11-23T12:17:07.695Z,99.99
2016-11-23T12:18:20.690Z,99.99
2016-11-23T12:19:33.197Z,99.99
2016-11-23T12:20:46.733Z,99.99
2016-11-23T12:21:59.737Z,99.99
2016-11-23T12:23:12.227Z,99.99
2016-11-23T12:24:23.645Z,99.99
2016-11-23T12:25:36.679Z,99.99
2016-11-23T12:26:50.264Z,99.99
2016-11-23T12:28:03.847Z,99.99
2016-11-23T12:29:16.949Z,99.99
2016-11-23T12:30:29.479Z,99.99
2016-11-23T12:31:42.513Z,99.99
2016-11-23T12:32:56.089Z,99.99
2016-11-23T12:34:09.016Z,99.99
2016-11-23T12:35:22.046Z,99.99
2016-11-23T12:36:33.989Z,99.99
2016-11-23T12:37:47.592Z,99.99
2016-11-23T12:39:00.644Z,99.99
2016-11-23T12:40:12.626Z,99.99
2016-11-23T12:41:25.092Z,99.99
2016-11-23T12:42:37.651Z,99.99
2016-11-23T12:43:50.682Z,99.99
2016-11-23T12:45:04.327Z,99.99
2016-11-23T12:46:17.392Z,99.99
2016-11-23T12:47:30.943Z,99.99
2016-11-23T12:48:43.471Z,99.99
2016-11-23T12:49:56.531Z,99.99
2016-11-23T12:51:09.069Z,99.99
2016-11-23T12:52:20.500Z,99.99
2016-11-23T12:53:31.934Z,99.99
2016-11-23T12:54:45.440Z,99.99
2016-11-23T12:55:57.432Z,99.99
2016-11-23T12:57:11.020Z,99.99
2016-11-23T12:58:23.032Z,99.99
2016-11-23T12:59:36.046Z,99.99
2016-11-23T13:00:49.057Z,99.99
2016-11-23T13:02:00.489Z,99.99
2016-11-23T13:03:13.030Z,99.99
2016-11-23T13:04:25.531Z,99.99
2016-11-23T13:05:38.613Z,99.99
2016-11-23T13:06:51.051Z,99.99
2016-11-23T13:08:04.161Z,99.99
2016-11-23T13:09:17.708Z,99.99
2016-11-23T13:10:30.188Z,99.99
2016-11-23T13:11:41.670Z,99.99
2016-11-23T13:12:54.705Z,99.99
2016-11-23T13:14:07.652Z,99.99
2016-11-23T13:15:20.685Z,99.99
2016-11-23T13:16:32.665Z,99.99
2016-11-23T13:17:45.147Z,99.99
2016-11-23T13:18:58.706Z,99.99
2016-11-23T13:20:11.732Z,99.99
2016-11-23T13:21:24.193Z,99.99
2016-11-23T13:22:36.637Z,99.99
2016-11-23T13:23:49.156Z,99.99
2016-11-23T13:25:01.169Z,99.99
2016-11-23T13:26:14.090Z,99.99
2016-11-23T13:27:27.686Z,99.99
2016-11-23T13:28:41.189Z,99.99
2016-11-23T13:29:53.702Z,99.99
2016-11-23T13:31:06.219Z,99.99
2016-11-23T13:32:18.208Z,99.99
2016-11-23T13:33:31.254Z,99.99
2016-11-23T13:34:44.281Z,99.99
2016-11-23T13:35:56.815Z,99.99
2016-11-23T13:37:09.294Z,99.99
2016-11-23T13:38:22.332Z,99.99
2016-11-23T13:39:35.515Z,99.99
2016-11-23T13:40:47.615Z,99.99
2016-11-23T13:41:59.087Z,99.99
2016-11-23T13:43:11.649Z,99.99
2016-11-23T13:44:24.172Z,99.99
2016-11-23T13:45:37.218Z,99.99
2016-11-23T13:46:50.264Z,99.02
2016-11-23T13:48:02.308Z,98.15
2016-11-23T13:49:14.822Z,97.52
2016-11-23T13:50:27.829Z,97.52
2016-11-23T13:51:40.389Z,97.42
2016-11-23T13:52:53.451Z,97.23
2016-11-23T13:54:05.899Z,96.12
2016-11-23T13:55:18.397Z,97.57
2016-11-23T13:56:32.015Z,96.6
2016-11-23T13:57:45.009Z,96.31
2016-11-23T13:58:57.545Z,94.28
2016-11-23T14:00:10.549Z,94.86
2016-11-23T14:01:23.576Z,94.18
2016-11-23T14:02:36.045Z,94.57
2016-11-23T14:03:49.086Z,94.47
2016-11-23T14:05:01.549Z,93.6
2016-11-23T14:06:14.640Z,94.57
2016-11-23T14:07:27.132Z,94.96
2016-11-23T14:08:39.663Z,93.12
2016-11-23T14:09:52.731Z,93.31
2016-11-23T14:11:05.214Z,92.63
2016-11-23T14:12:18.209Z,93.41
2016-11-23T14:13:31.246Z,93.35
2016-11-23T14:14:44.270Z,91.22
2016-11-23T14:15:57.375Z,90.94
2016-11-23T14:17:10.397Z,90.64
2016-11-23T14:18:22.891Z,90.2
2016-11-23T14:19:36.408Z,90.69
2016-11-23T14:20:48.863Z,90.59
2016-11-23T14:22:01.940Z,90.3
2016-11-23T14:23:14.980Z,90.5
2016-11-23T14:24:27.571Z,90.4
2016-11-23T14:25:39.552Z,90.4
2016-11-23T14:26:52.601Z,89.43
2016-11-23T14:28:05.635Z,89.04
2016-11-23T14:29:19.402Z,89.47
2016-11-23T14:30:31.356Z,89.09
2016-11-23T14:31:43.868Z,88.7
2016-11-23T14:32:56.418Z,88.21
2016-11-23T14:34:09.452Z,88.51
2016-11-23T14:35:21.949Z,89.47
2016-11-23T14:36:34.996Z,88.89
2016-11-23T14:37:47.503Z,89.09
2016-11-23T14:39:01.016Z,88.89
2016-11-23T14:40:14.023Z,89.28
2016-11-23T14:41:27.596Z,88.79
2016-11-23T14:42:41.147Z,89.04
2016-11-23T14:43:54.719Z,89.53
2016-11-23T14:45:08.269Z,88.75
2016-11-23T14:46:21.360Z,88.41
2016-11-23T14:47:34.472Z,88.41
2016-11-23T14:48:47.471Z,88.41
2016-11-23T14:50:00.509Z,88.95
2016-11-23T14:51:13.608Z,89.04
2016-11-23T14:52:26.662Z,89.53
2016-11-23T14:53:39.754Z,89.33
2016-11-23T14:54:52.943Z,89.72
2016-11-23T14:56:06.466Z,89.43
2016-11-23T14:57:20.058Z,89.53
2016-11-23T15:00:16.250Z,88.89
2016-11-23T15:01:29.822Z,88.46
2016-11-23T15:02:42.369Z,88.51
2016-11-23T15:03:55.451Z,88.31
2016-11-23T15:05:07.473Z,88.6
2016-11-23T15:06:19.425Z,88.51
2016-11-23T15:07:32.465Z,88.99
2016-11-23T15:08:46.022Z,89.37
2016-11-23T15:09:57.994Z,89.53
2016-11-23T15:11:11.574Z,90.2
2016-11-23T15:12:24.629Z,90.3
2016-11-23T15:13:37.676Z,90.11
2016-11-23T15:14:50.688Z,90.3
2016-11-23T15:16:03.763Z,90.4
2016-11-23T15:17:15.766Z,90.01
2016-11-23T15:18:28.281Z,90.2
2016-11-23T15:19:40.798Z,90.11
2016-11-23T15:20:52.211Z,90.64
2016-11-23T15:22:05.303Z,90.11
2016-11-23T15:23:17.794Z,90.59
2016-11-23T15:24:29.805Z,90.88
2016-11-23T15:25:42.844Z,90.78
2016-11-23T15:27:58.664Z,91.17
2016-11-23T15:29:11.160Z,91.17
2016-11-23T15:30:23.672Z,91.27
2016-11-23T15:31:37.285Z,91.37
2016-11-23T15:32:50.913Z,91.08
2016-11-23T15:34:03.960Z,91.17
2016-11-23T15:35:16.422Z,91.32
2016-11-23T15:37:01.073Z,91.42
2016-11-23T15:38:14.102Z,91.61
2016-11-23T15:39:27.198Z,91.66
2016-11-23T15:40:40.756Z,91.56
2016-11-23T15:41:53.803Z,91.27